TimeCDT,TemperatureF,Dew PointF,Humidity,Sea Level PressureIn,VisibilityMPH,Wind Direction,Wind SpeedMPH,Gust SpeedMPH,PrecipitationIn,Events,Conditions,WindDirDegrees,DateUTC
12:38 AM,66.2,62.6,88,29.91,10.0,NW,11.5,-,N/A,,Scattered Clouds,320,2012-10-27 05:38:00
12:56 AM,64.9,61.0,87,29.90,10.0,NNW,11.5,-,N/A,,Scattered Clouds,330,2012-10-27 05:56:00
1:56 AM,64.0,59.0,84,29.89,10.0,NW,6.9,19.6,N/A,,Overcast,310,2012-10-27 06:56:00
2:56 AM,60.1,55.0,83,29.89,10.0,NW,13.8,20.7,N/A,,Overcast,320,2012-10-27 07:56:00
3:56 AM,57.0,52.0,83,29.90,10.0,NW,12.7,20.7,N/A,,Overcast,320,2012-10-27 08:56:00
4:56 AM,55.9,51.1,84,29.91,10.0,NNW,10.4,18.4,N/A,,Overcast,330,2012-10-27 09:56:00
5:56 AM,55.0,50.0,83,29.91,10.0,NNW,10.4,16.1,N/A,,Overcast,330,2012-10-27 10:56:00
6:56 AM,54.0,50.0,86,29.93,10.0,Variable,6.9,-,N/A,,Overcast,0,2012-10-27 11:56:00
7:56 AM,53.1,48.9,86,29.94,9.0,NW,6.9,19.6,N/A,,Overcast,320,2012-10-27 12:56:00
8:56 AM,54.0,48.9,83,29.94,10.0,NW,10.4,17.3,N/A,,Overcast,310,2012-10-27 13:56:00
9:56 AM,54.0,48.9,83,29.95,10.0,NW,8.1,-,N/A,,Overcast,310,2012-10-27 14:56:00
10:56 AM,55.0,48.0,77,29.94,10.0,NW,10.4,-,N/A,,Overcast,310,2012-10-27 15:56:00
11:56 AM,54.0,48.0,80,29.93,10.0,NNW,13.8,17.3,N/A,,Overcast,330,2012-10-27 16:56:00
12:56 PM,54.0,48.0,80,29.91,10.0,NW,10.4,17.3,N/A,,Overcast,320,2012-10-27 17:56:00
1:56 PM,54.0,48.0,80,29.90,10.0,NW,10.4,-,N/A,,Overcast,310,2012-10-27 18:56:00
2:56 PM,54.0,48.0,80,29.88,10.0,NW,9.2,-,N/A,,Overcast,310,2012-10-27 19:56:00
3:56 PM,54.0,48.0,80,29.88,10.0,Variable,5.8,-,N/A,,Overcast,0,2012-10-27 20:56:00
4:56 PM,52.0,48.0,86,29.88,10.0,NW,10.4,-,N/A,,Overcast,310,2012-10-27 21:56:00
5:56 PM,52.0,48.0,86,29.89,7.0,NW,10.4,-,N/A,,Overcast,320,2012-10-27 22:56:00
6:56 PM,51.1,46.9,86,29.91,9.0,NNW,9.2,-,N/A,,Overcast,330,2012-10-27 23:56:00
7:56 PM,51.1,46.9,86,29.92,8.0,NW,10.4,-,N/A,,Overcast,320,2012-10-28 00:56:00
8:56 PM,51.1,46.9,86,29.92,6.0,NW,12.7,16.1,N/A,,Overcast,320,2012-10-28 01:56:00
9:56 PM,50.0,46.9,89,29.92,10.0,NW,11.5,-,N/A,,Overcast,320,2012-10-28 02:56:00
10:56 PM,50.0,46.0,86,29.91,10.0,NNW,9.2,17.3,N/A,,Overcast,330,2012-10-28 03:56:00
11:56 PM,50.0,46.0,86,29.89,10.0,NW,10.4,17.3,N/A,,Overcast,320,2012-10-28 04:56:00